createdAt,value
2022-12-19T00:02:32.652Z,18.40
2022-12-19T00:05:06.214Z,18.42
2022-12-19T00:07:38.990Z,18.36
2022-12-19T00:10:11.697Z,18.32
2022-12-19T00:12:44.280Z,18.33
2022-12-19T00:15:16.990Z,18.30
2022-12-19T00:17:49.584Z,18.19
2022-12-19T00:20:22.144Z,18.24
2022-12-19T00:22:54.673Z,18.21
2022-12-19T00:25:27.918Z,18.18
2022-12-19T00:28:00.501Z,18.23
2022-12-19T00:30:33.005Z,18.20
2022-12-19T00:33:05.666Z,18.11
2022-12-19T00:35:38.184Z,18.13
2022-12-19T00:38:10.785Z,18.00
2022-12-19T00:40:43.489Z,18.10
2022-12-19T00:43:16.034Z,18.09
2022-12-19T00:45:48.628Z,17.99
2022-12-19T00:48:21.192Z,18.08
2022-12-19T00:51:09.767Z,18.02
2022-12-19T00:53:44.408Z,18.03
2022-12-19T00:56:22.316Z,17.91
2022-12-19T00:58:55.950Z,18.00
2022-12-19T01:01:40.484Z,18.01
2022-12-19T01:04:32.595Z,17.94
2022-12-19T01:07:08.199Z,18.01
2022-12-19T01:09:40.959Z,17.99
2022-12-19T01:12:31.983Z,17.95
2022-12-19T01:15:05.427Z,17.93
2022-12-19T01:17:44.670Z,17.91
2022-12-19T01:20:29.286Z,17.86
2022-12-19T01:23:02.714Z,17.81
2022-12-19T01:25:36.847Z,17.85
2022-12-19T01:28:15.686Z,17.82
2022-12-19T01:30:49.067Z,17.85
2022-12-19T01:33:21.774Z,17.73
2022-12-19T01:35:54.424Z,17.82
2022-12-19T01:38:27.129Z,17.72
2022-12-19T01:40:59.873Z,17.79
2022-12-19T01:44:00.832Z,17.87
2022-12-19T01:46:39.409Z,17.78
2022-12-19T01:49:34.535Z,17.76
2022-12-19T01:52:11.979Z,17.75
2022-12-19T01:54:53.376Z,17.75
2022-12-19T01:57:26.151Z,17.71
2022-12-19T02:00:01.417Z,17.66
2022-12-19T02:02:43.561Z,17.70
2022-12-19T02:05:16.368Z,17.66
2022-12-19T02:07:51.363Z,17.65
2022-12-19T02:10:24.056Z,17.67
2022-12-19T02:12:56.825Z,17.61
2022-12-19T02:15:35.245Z,17.58
2022-12-19T02:18:48.885Z,17.61
2022-12-19T02:21:49.317Z,17.70
2022-12-19T02:25:30.554Z,17.76
2022-12-19T02:28:58.617Z,17.74
2022-12-19T02:31:49.841Z,17.69
2022-12-19T02:35:07.099Z,17.75
2022-12-19T02:37:53.265Z,17.62
2022-12-19T02:40:39.991Z,17.59
2022-12-19T02:43:18.206Z,17.54
2022-12-19T02:45:52.019Z,17.53
2022-12-19T02:48:25.597Z,17.56
2022-12-19T02:50:58.411Z,17.47
2022-12-19T02:53:31.071Z,17.49
2022-12-19T02:56:27.876Z,17.50
2022-12-19T02:59:39.022Z,17.61
2022-12-19T03:02:39.050Z,17.47
2022-12-19T03:05:27.105Z,17.46
2022-12-19T03:08:34.706Z,17.49
2022-12-19T03:11:14.811Z,17.40
2022-12-19T03:14:08.442Z,17.53
2022-12-19T03:16:41.891Z,17.41
2022-12-19T03:19:16.171Z,17.37
2022-12-19T03:21:50.557Z,17.38
2022-12-19T03:24:23.314Z,17.34
2022-12-19T03:27:02.728Z,17.34
2022-12-19T03:29:43.849Z,17.38
2022-12-19T03:32:19.529Z,17.35
2022-12-19T03:35:04.128Z,17.34
2022-12-19T03:37:41.173Z,17.69
2022-12-19T03:40:21.947Z,17.32
2022-12-19T03:43:08.933Z,17.38
2022-12-19T03:46:00.300Z,17.46
2022-12-19T03:48:43.328Z,17.33
2022-12-19T03:51:38.176Z,17.37
2022-12-19T03:54:20.887Z,17.64
2022-12-19T03:57:19.977Z,17.36
2022-12-19T04:00:03.794Z,17.31
2022-12-19T04:02:40.279Z,17.26
2022-12-19T04:05:20.065Z,17.20
2022-12-19T04:07:58.388Z,17.24
2022-12-19T04:10:36.941Z,17.21
2022-12-19T04:13:16.190Z,17.19
2022-12-19T04:16:01.135Z,17.24
2022-12-19T04:18:36.458Z,17.21
2022-12-19T04:21:22.707Z,17.23
2022-12-19T04:24:15.097Z,17.22
2022-12-19T04:26:52.590Z,17.21
2022-12-19T04:29:28.926Z,17.17
2022-12-19T04:32:08.219Z,17.19
2022-12-19T04:34:43.010Z,17.19
2022-12-19T04:37:16.848Z,17.17
2022-12-19T04:39:49.503Z,17.05
2022-12-19T04:42:22.052Z,17.04
2022-12-19T04:44:54.721Z,17.07
2022-12-19T04:47:27.622Z,17.12
2022-12-19T04:50:00.261Z,17.10
2022-12-19T04:52:32.872Z,17.14
2022-12-19T04:55:06.606Z,17.12
2022-12-19T04:57:39.219Z,17.12
2022-12-19T05:00:12.863Z,17.12
2022-12-19T05:02:45.813Z,17.10
2022-12-19T05:05:19.050Z,17.06
2022-12-19T05:07:51.980Z,17.06
2022-12-19T05:10:24.851Z,17.06
2022-12-19T05:12:57.499Z,17.04
2022-12-19T05:15:30.084Z,17.04
2022-12-19T05:18:02.662Z,17.05
2022-12-19T05:20:37.129Z,17.04
2022-12-19T05:23:16.780Z,17.05
2022-12-19T05:25:51.441Z,17.05
2022-12-19T05:28:24.298Z,17.07
2022-12-19T05:31:08.521Z,17.05
2022-12-19T05:33:43.024Z,17.01
2022-12-19T05:36:17.679Z,17.02
2022-12-19T05:38:50.223Z,16.97
2022-12-19T05:41:23.191Z,17.05
2022-12-19T05:43:56.658Z,17.05
2022-12-19T05:46:29.373Z,17.09
2022-12-19T05:49:01.949Z,17.10
2022-12-19T05:51:34.937Z,17.13
2022-12-19T05:54:07.622Z,17.20
2022-12-19T05:56:40.190Z,17.27
2022-12-19T05:59:13.237Z,17.33
2022-12-19T06:01:45.864Z,17.38
2022-12-19T06:04:18.635Z,17.36
2022-12-19T06:06:51.742Z,17.46
2022-12-19T06:09:25.324Z,17.58
2022-12-19T06:11:58.212Z,17.45
2022-12-19T06:14:31.166Z,17.54
2022-12-19T06:17:04.248Z,17.78
2022-12-19T06:19:37.200Z,17.65
2022-12-19T06:22:12.664Z,17.74
2022-12-19T06:24:45.610Z,17.94
2022-12-19T06:27:18.416Z,18.07
2022-12-19T06:29:51.137Z,17.96
2022-12-19T06:32:24.426Z,18.22
2022-12-19T06:35:04.947Z,18.13
2022-12-19T06:37:39.664Z,18.38
2022-12-19T06:40:32.853Z,18.44
2022-12-19T06:43:05.539Z,18.39
2022-12-19T06:45:38.276Z,18.46
2022-12-19T06:48:11.269Z,18.69
2022-12-19T06:50:44.382Z,18.56
2022-12-19T06:53:23.237Z,18.64
2022-12-19T06:55:59.464Z,18.72
2022-12-19T06:58:34.280Z,18.76
2022-12-19T07:01:07.322Z,18.84
2022-12-19T07:03:42.185Z,18.83
2022-12-19T07:06:15.912Z,19.04
2022-12-19T07:08:48.556Z,19.01
2022-12-19T07:11:21.132Z,19.08
2022-12-19T07:13:53.823Z,18.98
2022-12-19T07:16:28.121Z,19.06
2022-12-19T07:19:00.990Z,19.14
2022-12-19T07:21:33.844Z,19.15
2022-12-19T07:24:07.847Z,19.12
2022-12-19T07:26:44.373Z,19.15
2022-12-19T07:29:16.924Z,19.16
2022-12-19T07:31:49.526Z,19.16
2022-12-19T07:34:22.169Z,19.17
2022-12-19T07:36:54.739Z,19.17
2022-12-19T07:39:27.428Z,19.13
2022-12-19T07:41:59.982Z,19.18
2022-12-19T07:44:32.725Z,19.17
2022-12-19T07:47:05.406Z,19.13
2022-12-19T07:49:38.151Z,19.11
2022-12-19T07:52:11.755Z,19.17
2022-12-19T07:54:50.284Z,19.20
2022-12-19T07:57:22.910Z,19.11
2022-12-19T07:59:57.389Z,19.16
2022-12-19T08:02:30.248Z,19.15
2022-12-19T08:05:04.692Z,19.14
2022-12-19T08:07:37.338Z,19.19
2022-12-19T08:10:12.490Z,19.20
2022-12-19T08:12:46.594Z,19.21
2022-12-19T08:15:19.188Z,19.53
2022-12-19T08:17:53.549Z,19.31
2022-12-19T08:20:26.118Z,19.28
2022-12-19T08:22:58.804Z,19.27
2022-12-19T08:25:31.334Z,19.33
2022-12-19T08:28:03.954Z,19.34
2022-12-19T08:30:39.441Z,19.35
2022-12-19T08:33:12.045Z,19.39
2022-12-19T08:35:44.641Z,19.40
2022-12-19T08:38:17.218Z,19.39
2022-12-19T08:40:54.769Z,19.43
2022-12-19T08:43:28.226Z,19.46
2022-12-19T08:46:01.147Z,19.48
2022-12-19T08:48:34.768Z,19.47
2022-12-19T08:51:08.921Z,19.50
2022-12-19T08:53:43.798Z,19.82
2022-12-19T08:56:21.709Z,19.89
2022-12-19T08:58:56.107Z,19.60
2022-12-19T09:01:28.767Z,19.63
2022-12-19T09:04:28.708Z,19.60
2022-12-19T09:06:53.931Z,19.64
2022-12-19T09:09:27.204Z,19.66
2022-12-19T09:11:59.823Z,19.68
2022-12-19T09:14:35.951Z,19.68
2022-12-19T09:17:09.113Z,19.68
2022-12-19T09:19:45.123Z,19.71
2022-12-19T09:22:21.117Z,19.71
2022-12-19T09:25:00.319Z,19.73
2022-12-19T09:27:47.455Z,19.74
2022-12-19T09:30:25.419Z,19.80
2022-12-19T09:32:58.786Z,19.84
2022-12-19T09:35:31.586Z,19.82
2022-12-19T09:38:04.705Z,19.84
2022-12-19T09:40:57.910Z,19.90
2022-12-19T09:43:56.438Z,19.94
2022-12-19T09:46:31.518Z,19.92
2022-12-19T09:49:13.767Z,19.94
2022-12-19T09:52:11.236Z,20.05
2022-12-19T09:54:57.805Z,19.99
2022-12-19T09:57:58.226Z,20.01
2022-12-19T10:00:44.996Z,20.05
2022-12-19T10:03:39.983Z,20.10
2022-12-19T10:07:11.825Z,20.09
2022-12-19T10:10:26.866Z,20.08
2022-12-19T10:13:17.548Z,20.15
2022-12-19T10:16:25.101Z,20.15
2022-12-19T10:19:03.684Z,20.14
2022-12-19T10:22:17.843Z,20.13
2022-12-19T10:25:20.401Z,20.25
2022-12-19T10:28:11.866Z,20.24
2022-12-19T10:31:21.556Z,20.30
2022-12-19T10:34:23.063Z,20.35
2022-12-19T10:37:26.882Z,20.22
2022-12-19T10:40:36.956Z,20.34
2022-12-19T10:43:52.607Z,20.41
2022-12-19T10:46:49.071Z,20.41
2022-12-19T10:49:26.873Z,20.32
2022-12-19T10:52:04.762Z,20.33
2022-12-19T10:54:38.567Z,20.27
2022-12-19T10:57:27.089Z,20.44
2022-12-19T11:00:15.968Z,20.32
2022-12-19T11:02:51.993Z,20.37
2022-12-19T11:05:39.118Z,20.38
2022-12-19T11:08:25.515Z,20.43
2022-12-19T11:12:18.868Z,20.41
2022-12-19T11:18:41.898Z,20.42
2022-12-19T11:26:20.418Z,20.38
2022-12-19T11:29:17.680Z,20.43
2022-12-19T11:30:41.735Z,20.47
2022-12-19T11:30:42.998Z,20.44
2022-12-19T11:30:49.022Z,20.43
2022-12-19T11:32:32.070Z,20.46
2022-12-19T11:34:35.716Z,20.42
2022-12-19T11:37:33.215Z,20.51
2022-12-19T11:40:44.668Z,20.48
2022-12-19T11:43:49.031Z,20.79
2022-12-19T11:46:55.529Z,20.64
2022-12-19T11:49:40.969Z,20.53
2022-12-19T11:53:02.964Z,20.54
2022-12-19T11:55:42.222Z,20.58
2022-12-19T11:58:14.833Z,20.53
2022-12-19T12:01:42.201Z,20.65
2022-12-19T12:05:18.328Z,20.65
2022-12-19T12:11:05.309Z,20.68
2022-12-19T12:17:07.500Z,20.61
2022-12-19T12:23:15.890Z,20.65
2022-12-19T12:31:11.599Z,20.58
2022-12-19T12:31:21.385Z,20.64
2022-12-19T12:31:52.918Z,20.66
2022-12-19T12:32:06.159Z,20.56
2022-12-19T12:35:28.855Z,20.55
2022-12-19T12:39:03.896Z,20.70
2022-12-19T12:42:07.724Z,20.61
2022-12-19T12:44:45.934Z,20.58
2022-12-19T12:47:28.116Z,20.60
2022-12-19T12:50:06.214Z,20.54
2022-12-19T12:52:45.896Z,20.56
2022-12-19T12:55:35.278Z,20.65
2022-12-19T12:58:49.848Z,20.76
2022-12-19T13:01:43.027Z,20.63
2022-12-19T13:04:15.694Z,20.60
2022-12-19T13:06:51.010Z,20.58
2022-12-19T13:09:36.755Z,20.56
2022-12-19T13:12:45.393Z,20.57
2022-12-19T13:15:27.057Z,20.65
2022-12-19T13:18:26.910Z,20.64
2022-12-19T13:21:02.913Z,20.61
2022-12-19T13:23:38.496Z,20.65
2022-12-19T13:26:46.922Z,20.78
2022-12-19T13:30:14.932Z,20.78
2022-12-19T13:32:47.409Z,20.67
2022-12-19T13:37:11.213Z,20.66
2022-12-19T13:39:48.494Z,20.66
2022-12-19T13:42:01.386Z,20.79
2022-12-19T13:44:41.209Z,20.67
2022-12-19T13:47:18.882Z,20.67
2022-12-19T13:49:55.564Z,20.67
2022-12-19T13:52:28.259Z,20.65
2022-12-19T13:55:00.845Z,20.67
2022-12-19T13:57:39.171Z,20.64
2022-12-19T14:00:22.460Z,20.66
2022-12-19T14:02:56.445Z,20.65
2022-12-19T14:06:15.237Z,20.69
2022-12-19T14:08:32.969Z,20.66
2022-12-19T14:11:41.380Z,20.64
2022-12-19T14:14:27.480Z,20.58
2022-12-19T14:17:16.134Z,20.70
2022-12-19T14:19:52.334Z,20.62
2022-12-19T14:22:39.376Z,20.59
2022-12-19T14:28:14.082Z,20.60
2022-12-19T14:28:17.073Z,20.61
2022-12-19T14:31:02.475Z,20.61
2022-12-19T14:33:59.021Z,20.62
2022-12-19T14:36:46.743Z,20.63
2022-12-19T14:39:29.290Z,20.64
2022-12-19T14:43:06.364Z,20.74
2022-12-19T14:52:51.630Z,20.65
2022-12-19T14:54:05.829Z,20.71
2022-12-19T14:54:42.092Z,20.65
2022-12-19T14:58:51.027Z,20.59
2022-12-19T15:01:10.130Z,20.65
2022-12-19T15:03:30.835Z,20.61
2022-12-19T15:07:08.284Z,20.62
2022-12-19T15:11:00.652Z,20.65
2022-12-19T15:14:48.490Z,20.65
2022-12-19T15:15:56.457Z,20.69
2022-12-19T15:18:32.159Z,20.65
2022-12-19T15:21:09.904Z,20.63
2022-12-19T15:23:45.373Z,20.60
2022-12-19T15:26:32.582Z,20.58
2022-12-19T15:29:14.085Z,20.61
2022-12-19T15:31:50.849Z,20.61
2022-12-19T15:34:40.121Z,20.57
2022-12-19T15:37:16.779Z,20.58
2022-12-19T15:39:49.728Z,20.54
2022-12-19T15:42:27.220Z,20.56
2022-12-19T15:45:01.079Z,20.58
2022-12-19T15:47:37.093Z,20.58
2022-12-19T15:50:29.606Z,20.68
2022-12-19T15:53:06.070Z,20.55
2022-12-19T15:55:40.510Z,20.57
2022-12-19T15:58:14.707Z,20.53
2022-12-19T16:00:54.784Z,20.50
2022-12-19T16:03:29.136Z,20.53
2022-12-19T16:06:01.854Z,20.89
2022-12-19T16:08:34.395Z,20.62
2022-12-19T16:11:23.939Z,20.57
2022-12-19T16:13:58.721Z,20.55
2022-12-19T16:16:31.312Z,20.57
2022-12-19T16:19:04.129Z,20.56
2022-12-19T16:21:36.818Z,20.55
2022-12-19T16:24:09.344Z,20.55
2022-12-19T16:26:42.222Z,20.54
2022-12-19T16:29:22.927Z,20.52
2022-12-19T16:31:56.281Z,20.53
2022-12-19T16:34:29.002Z,20.54
2022-12-19T16:37:01.499Z,20.52
2022-12-19T16:39:34.201Z,20.48
2022-12-19T16:42:16.434Z,20.46
2022-12-19T16:44:49.001Z,20.49
2022-12-19T16:47:21.775Z,20.48
2022-12-19T16:49:54.325Z,20.48
2022-12-19T16:52:26.989Z,20.47
2022-12-19T16:54:59.718Z,20.46
2022-12-19T16:57:32.346Z,20.42
2022-12-19T17:00:06.454Z,20.45
2022-12-19T17:02:52.484Z,20.78
2022-12-19T17:05:29.323Z,20.48
2022-12-19T17:08:02.111Z,20.41
2022-12-19T17:10:34.816Z,20.46
2022-12-19T17:13:07.577Z,20.45
2022-12-19T17:15:41.579Z,20.45
2022-12-19T17:18:28.139Z,20.42
2022-12-19T17:21:01.277Z,20.40
2022-12-19T17:23:33.919Z,20.36
2022-12-19T17:26:06.676Z,20.39
2022-12-19T17:28:39.311Z,20.38
2022-12-19T17:31:27.344Z,20.36
2022-12-19T17:34:00.295Z,20.38
2022-12-19T17:36:37.568Z,20.33
2022-12-19T17:39:23.255Z,20.37
2022-12-19T17:42:01.001Z,20.35
2022-12-19T17:44:34.377Z,20.37
2022-12-19T17:47:07.101Z,20.39
2022-12-19T17:49:39.869Z,20.34
2022-12-19T17:52:16.758Z,20.32
2022-12-19T17:54:49.428Z,20.35
2022-12-19T17:57:22.059Z,20.35
2022-12-19T17:59:54.623Z,20.34
2022-12-19T18:02:27.597Z,20.35
2022-12-19T18:05:01.438Z,20.33
2022-12-19T18:07:34.404Z,20.34
2022-12-19T18:10:15.839Z,20.34
2022-12-19T18:12:49.433Z,20.34
2022-12-19T18:15:24.732Z,20.35
2022-12-19T18:17:57.590Z,20.35
2022-12-19T18:20:33.419Z,20.34
2022-12-19T18:23:16.383Z,20.30
2022-12-19T18:25:49.699Z,20.35
2022-12-19T18:28:22.831Z,20.38
2022-12-19T18:31:03.151Z,20.36
2022-12-19T18:33:40.334Z,20.32
2022-12-19T18:36:28.796Z,20.41
2022-12-19T18:39:01.368Z,20.36
2022-12-19T18:41:33.912Z,20.27
2022-12-19T18:44:06.452Z,20.32
2022-12-19T18:46:39.338Z,20.33
2022-12-19T18:49:15.359Z,20.33
2022-12-19T18:51:47.913Z,20.28
2022-12-19T18:54:22.499Z,20.32
2022-12-19T18:56:57.063Z,20.28
2022-12-19T18:59:29.597Z,20.33
2022-12-19T19:02:02.400Z,20.36
2022-12-19T19:04:35.064Z,20.27
2022-12-19T19:07:10.076Z,20.31
2022-12-19T19:09:42.941Z,20.36
2022-12-19T19:12:15.491Z,20.29
2022-12-19T19:14:48.159Z,20.34
2022-12-19T19:17:29.216Z,20.33
2022-12-19T19:20:03.626Z,20.34
2022-12-19T19:22:36.675Z,20.35
2022-12-19T19:25:09.569Z,20.34
2022-12-19T19:27:42.329Z,20.36
2022-12-19T19:30:15.906Z,20.36
2022-12-19T19:32:57.171Z,20.31
2022-12-19T19:35:30.373Z,20.35
2022-12-19T19:38:08.566Z,20.34
2022-12-19T19:40:41.444Z,20.27
2022-12-19T19:43:14.151Z,20.34
2022-12-19T19:45:46.934Z,20.34
2022-12-19T19:48:19.697Z,20.33
2022-12-19T19:50:52.492Z,20.35
2022-12-19T19:53:25.585Z,20.34
2022-12-19T19:56:01.198Z,20.35
2022-12-19T19:58:33.984Z,20.36
2022-12-19T20:01:12.823Z,20.33
2022-12-19T20:03:45.606Z,20.37
2022-12-19T20:06:19.402Z,20.36
2022-12-19T20:08:52.057Z,20.37
2022-12-19T20:11:24.880Z,20.34
2022-12-19T20:13:57.526Z,20.36
2022-12-19T20:16:30.737Z,20.34
2022-12-19T20:19:03.707Z,20.35
2022-12-19T20:21:36.347Z,20.34
2022-12-19T20:24:09.774Z,20.35
2022-12-19T20:26:42.872Z,20.39
2022-12-19T20:29:15.511Z,20.40
2022-12-19T20:31:48.184Z,20.36
2022-12-19T20:34:20.782Z,20.38
2022-12-19T20:36:53.491Z,20.35
2022-12-19T20:39:26.715Z,20.36
2022-12-19T20:41:59.287Z,20.33
2022-12-19T20:44:32.141Z,20.36
2022-12-19T20:47:05.051Z,20.36
2022-12-19T20:49:38.367Z,20.35
2022-12-19T20:52:11.636Z,20.37
2022-12-19T20:54:44.152Z,20.38
2022-12-19T20:57:16.679Z,20.39
2022-12-19T20:59:49.339Z,20.37
2022-12-19T21:02:22.429Z,20.39
2022-12-19T21:04:55.382Z,20.40
2022-12-19T21:07:28.096Z,20.38
2022-12-19T21:10:00.699Z,20.35
2022-12-19T21:12:33.396Z,20.37
2022-12-19T21:15:06.651Z,20.30
2022-12-19T21:17:39.171Z,20.35
2022-12-19T21:20:13.693Z,20.38
2022-12-19T21:22:46.283Z,20.37
2022-12-19T21:25:18.992Z,20.37
2022-12-19T21:27:51.764Z,20.38
2022-12-19T21:30:24.295Z,20.34
2022-12-19T21:32:56.808Z,20.38
2022-12-19T21:35:29.892Z,20.37
2022-12-19T21:38:02.693Z,20.37
2022-12-19T21:40:37.507Z,20.35
2022-12-19T21:43:12.233Z,20.36
2022-12-19T21:45:45.018Z,20.35
2022-12-19T21:48:17.706Z,20.33
2022-12-19T21:50:56.290Z,20.35
2022-12-19T21:53:28.921Z,20.32
2022-12-19T21:56:29.238Z,20.35
2022-12-19T21:59:10.920Z,20.35
2022-12-19T22:01:44.927Z,20.33
2022-12-19T22:04:21.992Z,20.33
2022-12-19T22:06:55.363Z,20.33
2022-12-19T22:09:28.007Z,20.29
2022-12-19T22:12:00.757Z,20.30
2022-12-19T22:14:33.632Z,20.29
2022-12-19T22:17:06.334Z,20.27
2022-12-19T22:19:39.003Z,20.23
2022-12-19T22:22:11.735Z,20.24
2022-12-19T22:24:44.280Z,20.21
2022-12-19T22:27:16.850Z,20.21
2022-12-19T22:29:49.572Z,20.17
2022-12-19T22:32:22.264Z,20.19
2022-12-19T22:34:55.759Z,20.18
2022-12-19T22:37:28.318Z,20.21
2022-12-19T22:40:04.266Z,20.18
2022-12-19T22:42:36.913Z,20.16
2022-12-19T22:45:10.117Z,20.15
2022-12-19T22:47:42.959Z,20.14
2022-12-19T22:50:15.891Z,20.08
2022-12-19T22:52:49.760Z,20.05
2022-12-19T22:55:23.433Z,20.05
2022-12-19T22:57:55.988Z,20.08
2022-12-19T23:00:28.697Z,19.97
2022-12-19T23:03:02.202Z,20.03
2022-12-19T23:05:37.821Z,20.01
2022-12-19T23:08:10.469Z,19.95
2022-12-19T23:10:43.346Z,19.98
2022-12-19T23:13:15.984Z,20.00
2022-12-19T23:15:48.660Z,19.98
2022-12-19T23:18:21.223Z,19.94
2022-12-19T23:21:14.287Z,20.04
2022-12-19T23:23:50.993Z,19.92
2022-12-19T23:26:34.706Z,19.89
2022-12-19T23:29:14.126Z,19.89
2022-12-19T23:31:47.710Z,19.88
2022-12-19T23:34:20.335Z,19.90
2022-12-19T23:39:45.405Z,19.87
2022-12-19T23:42:19.006Z,19.81
2022-12-19T23:44:51.594Z,19.82
2022-12-19T23:47:24.149Z,19.81
2022-12-19T23:49:56.699Z,19.71
2022-12-19T23:52:29.217Z,19.79
2022-12-19T23:55:01.838Z,19.72
2022-12-19T23:57:34.347Z,19.63
